createdAt,value
2022-09-06T00:02:12.516Z,54.64
2022-09-06T00:04:40.314Z,55.12
2022-09-06T00:07:08.142Z,55.13
2022-09-06T00:09:36.288Z,55.26
2022-09-06T00:12:04.686Z,55.26
2022-09-06T00:14:32.536Z,55.23
2022-09-06T00:17:01.829Z,55.23
2022-09-06T00:19:29.636Z,54.94
2022-09-06T00:21:57.467Z,55.06
2022-09-06T00:24:25.423Z,54.69
2022-09-06T00:26:53.192Z,54.34
2022-09-06T00:29:21.040Z,54.79
2022-09-06T00:31:48.863Z,55.19
2022-09-06T00:34:18.068Z,55.69
2022-09-06T00:36:45.841Z,55.43
2022-09-06T00:39:13.693Z,55.55
2022-09-06T00:41:41.890Z,55.51
2022-09-06T00:44:09.944Z,55.32
2022-09-06T00:46:40.789Z,55.24
2022-09-06T00:49:12.497Z,55.43
2022-09-06T00:51:42.023Z,55.39
2022-09-06T00:54:10.979Z,55.37
2022-09-06T00:56:42.880Z,55.29
2022-09-06T00:59:10.825Z,54.96
2022-09-06T01:01:38.956Z,54.99
2022-09-06T01:04:07.394Z,54.92
2022-09-06T01:06:49.257Z,55.10
2022-09-06T01:09:28.600Z,55.39
2022-09-06T01:12:11.722Z,55.28
2022-09-06T01:15:01.273Z,55.66
2022-09-06T01:17:42.685Z,56.13
2022-09-06T01:20:36.351Z,56.60
2022-09-06T01:23:44.208Z,56.44
2022-09-06T01:26:40.129Z,56.67
2022-09-06T01:29:17.089Z,56.24
2022-09-06T01:31:49.837Z,55.70
2022-09-06T01:34:25.673Z,56.60
2022-09-06T01:37:13.180Z,56.79
2022-09-06T01:39:42.570Z,56.63
2022-09-06T01:42:14.555Z,57.00
2022-09-06T01:44:47.404Z,56.99
2022-09-06T01:47:26.910Z,56.97
2022-09-06T01:50:16.035Z,57.55
2022-09-06T01:52:57.567Z,58.58
2022-09-06T01:55:32.220Z,58.01
2022-09-06T01:58:16.564Z,58.02
2022-09-06T02:00:55.734Z,58.13
2022-09-06T02:03:31.413Z,58.67
2022-09-06T02:06:05.087Z,59.54
2022-09-06T02:08:38.233Z,60.39
2022-09-06T02:11:08.356Z,60.51
2022-09-06T02:13:39.781Z,61.44
2022-09-06T02:16:11.878Z,61.61
2022-09-06T02:18:44.141Z,61.13
2022-09-06T02:21:16.349Z,62.05
2022-09-06T02:23:45.953Z,61.96
2022-09-06T02:26:18.678Z,62.62
2022-09-06T02:28:47.006Z,62.85
2022-09-06T02:31:23.414Z,62.91
2022-09-06T02:33:53.025Z,62.99
2022-09-06T02:36:21.150Z,63.00
2022-09-06T02:38:49.258Z,63.21
2022-09-06T02:41:22.570Z,63.64
2022-09-06T02:43:50.991Z,63.77
2022-09-06T02:46:20.235Z,63.94
2022-09-06T02:48:48.118Z,64.17
2022-09-06T02:51:16.015Z,64.10
2022-09-06T02:53:44.133Z,64.58
2022-09-06T02:56:12.364Z,64.25
2022-09-06T02:58:40.174Z,64.65
2022-09-06T03:01:08.257Z,65.38
2022-09-06T03:03:37.506Z,66.34
2022-09-06T03:06:05.476Z,66.31
2022-09-06T03:08:34.253Z,66.32
2022-09-06T03:11:02.605Z,66.44
2022-09-06T03:13:30.830Z,66.68
2022-09-06T03:16:00.191Z,66.44
2022-09-06T03:18:29.633Z,66.36
2022-09-06T03:20:59.604Z,66.77
2022-09-06T03:23:29.272Z,67.90
2022-09-06T03:25:57.682Z,67.99
2022-09-06T03:28:25.638Z,67.79
2022-09-06T03:30:54.426Z,67.94
2022-09-06T03:33:22.712Z,68.00
2022-09-06T03:35:51.866Z,68.26
2022-09-06T03:38:21.622Z,68.22
2022-09-06T03:40:50.451Z,67.67
2022-09-06T03:43:19.052Z,67.53
2022-09-06T03:45:48.295Z,67.74
2022-09-06T03:48:17.012Z,67.48
2022-09-06T03:50:47.178Z,67.72
2022-09-06T03:53:16.292Z,67.60
2022-09-06T03:55:47.695Z,67.56
2022-09-06T03:58:16.803Z,67.67
2022-09-06T04:00:45.371Z,67.62
2022-09-06T04:03:14.036Z,67.83
2022-09-06T04:05:45.679Z,67.99
2022-09-06T04:08:13.692Z,67.82
2022-09-06T04:10:41.512Z,67.99
2022-09-06T04:13:10.744Z,67.83
2022-09-06T04:15:38.541Z,68.03
2022-09-06T04:18:09.255Z,68.16
2022-09-06T04:20:37.292Z,67.93
2022-09-06T04:23:05.262Z,68.18
2022-09-06T04:25:33.219Z,68.27
2022-09-06T04:28:02.334Z,68.57
2022-09-06T04:30:31.525Z,68.58
2022-09-06T04:32:59.370Z,68.55
2022-09-06T04:35:27.240Z,68.48
2022-09-06T04:37:55.093Z,68.27
2022-09-06T04:40:22.945Z,68.15
2022-09-06T04:42:50.808Z,68.36
2022-09-06T04:45:18.687Z,68.44
2022-09-06T04:47:48.153Z,68.29
2022-09-06T04:50:15.947Z,68.58
2022-09-06T04:52:43.821Z,68.38
2022-09-06T04:55:11.683Z,68.26
2022-09-06T04:57:43.746Z,68.33
2022-09-06T05:00:14.551Z,68.12
2022-09-06T05:02:42.597Z,68.34
2022-09-06T05:05:12.386Z,68.49
2022-09-06T05:07:40.209Z,68.34
2022-09-06T05:10:08.386Z,68.46
2022-09-06T05:12:39.772Z,68.31
2022-09-06T05:15:10.948Z,68.46
2022-09-06T05:17:38.764Z,68.59
2022-09-06T05:20:07.355Z,68.57
2022-09-06T05:22:36.508Z,68.69
2022-09-06T05:25:04.532Z,68.73
2022-09-06T05:27:32.313Z,68.61
2022-09-06T05:30:00.138Z,68.60
2022-09-06T05:32:27.994Z,68.88
2022-09-06T05:34:55.845Z,68.63
2022-09-06T05:37:23.738Z,68.79
2022-09-06T05:39:53.139Z,68.79
2022-09-06T05:42:21.049Z,68.63
2022-09-06T05:44:48.871Z,68.76
2022-09-06T05:47:16.664Z,68.79
2022-09-06T05:49:44.498Z,68.76
2022-09-06T05:52:12.296Z,68.43
2022-09-06T05:54:40.089Z,68.50
2022-09-06T05:57:09.212Z,68.41
2022-09-06T05:59:37.240Z,68.53
2022-09-06T06:02:07.515Z,68.25
2022-09-06T06:04:35.846Z,68.19
2022-09-06T06:07:03.629Z,68.34
2022-09-06T06:09:31.578Z,68.25
2022-09-06T06:11:59.343Z,68.27
2022-09-06T06:14:28.495Z,68.81
2022-09-06T06:16:58.072Z,69.06
2022-09-06T06:19:26.666Z,68.88
2022-09-06T06:21:55.883Z,68.92
2022-09-06T06:24:23.739Z,68.69
2022-09-06T06:26:51.577Z,68.24
2022-09-06T06:29:19.598Z,68.44
2022-09-06T06:31:48.814Z,68.56
2022-09-06T06:34:18.212Z,68.14
2022-09-06T06:36:46.066Z,67.95
2022-09-06T06:39:14.090Z,67.73
2022-09-06T06:41:41.928Z,67.29
2022-09-06T06:44:09.748Z,67.26
2022-09-06T06:46:39.321Z,66.77
2022-09-06T06:49:08.547Z,66.11
2022-09-06T06:51:37.995Z,64.63
2022-09-06T06:54:06.745Z,64.69
2022-09-06T06:56:36.436Z,63.67
2022-09-06T06:59:06.921Z,63.24
2022-09-06T07:01:36.104Z,62.26
2022-09-06T07:04:04.612Z,61.41
2022-09-06T07:12:24.961Z,58.53
2022-09-06T07:14:53.100Z,57.50
2022-09-06T07:17:20.903Z,58.44
2022-09-06T07:22:37.940Z,57.08
2022-09-06T07:25:06.705Z,56.93
2022-09-06T07:27:50.498Z,56.51
2022-09-06T07:30:19.905Z,54.83
2022-09-06T07:32:47.941Z,54.77
2022-09-06T07:35:15.981Z,54.21
2022-09-06T07:37:45.185Z,53.91
2022-09-06T07:40:13.054Z,53.50
2022-09-06T07:42:40.933Z,50.80
2022-09-06T07:45:10.025Z,50.91
2022-09-06T07:53:20.500Z,49.59
2022-09-06T07:55:53.942Z,49.85
2022-09-06T07:58:22.859Z,48.97
2022-09-06T08:00:50.722Z,47.11
2022-09-06T08:03:18.600Z,47.93
2022-09-06T08:11:29.948Z,45.95
2022-09-06T08:13:59.072Z,47.24
2022-09-06T08:16:29.220Z,46.28
2022-09-06T08:18:58.481Z,46.78
2022-09-06T08:21:28.066Z,46.48
2022-09-06T08:24:00.173Z,45.35
2022-09-06T08:26:28.969Z,44.81
2022-09-06T08:29:00.023Z,44.74
2022-09-06T08:31:29.517Z,45.06
2022-09-06T08:33:58.191Z,44.82
2022-09-06T08:36:27.396Z,44.23
2022-09-06T08:38:55.448Z,44.23
2022-09-06T08:41:27.944Z,43.98
2022-09-06T08:46:53.750Z,43.38
2022-09-06T08:49:22.307Z,43.15
2022-09-06T08:52:07.277Z,41.20
2022-09-06T08:54:39.606Z,42.22
2022-09-06T08:57:16.935Z,42.83
2022-09-06T08:59:44.768Z,42.10
2022-09-06T09:02:15.169Z,41.29
2022-09-06T09:04:46.724Z,41.41
2022-09-06T09:07:31.197Z,41.58
2022-09-06T09:10:01.202Z,41.96
2022-09-06T09:12:33.856Z,41.56
2022-09-06T09:15:08.812Z,40.24
2022-09-06T09:17:37.598Z,40.56
2022-09-06T09:20:08.405Z,41.39
2022-09-06T09:22:36.592Z,40.41
2022-09-06T09:25:07.896Z,41.08
2022-09-06T09:27:37.980Z,40.46
2022-09-06T09:32:56.666Z,40.04
2022-09-06T09:35:32.584Z,39.67
2022-09-06T09:38:11.740Z,38.60
2022-09-06T09:40:42.899Z,39.15
2022-09-06T09:43:17.297Z,39.60
2022-09-06T09:45:45.664Z,39.45
2022-09-06T09:48:25.116Z,37.99
2022-09-06T09:50:52.967Z,39.38
2022-09-06T09:53:22.617Z,39.09
2022-09-06T09:55:55.776Z,38.52
2022-09-06T09:58:33.412Z,38.85
2022-09-06T10:01:13.561Z,38.52
2022-09-06T10:09:21.833Z,37.34
2022-09-06T10:11:55.482Z,36.95
2022-09-06T10:14:30.962Z,35.93
2022-09-06T10:17:00.881Z,36.23
2022-09-06T10:19:41.963Z,36.62
2022-09-06T10:22:30.044Z,35.57
2022-09-06T10:25:26.059Z,36.47
2022-09-06T10:28:12.597Z,35.42
2022-09-06T10:30:53.276Z,35.50
2022-09-06T10:33:32.260Z,35.54
2022-09-06T10:36:03.056Z,35.95
2022-09-06T10:38:42.138Z,36.15
2022-09-06T10:41:43.442Z,35.50
2022-09-06T10:44:27.591Z,34.86
2022-09-06T10:47:09.550Z,34.66
2022-09-06T10:49:39.111Z,35.58
2022-09-06T10:52:10.564Z,34.77
2022-09-06T10:54:42.230Z,34.99
2022-09-06T11:00:12.912Z,34.64
2022-09-06T11:05:42.962Z,34.20
2022-09-06T11:11:12.343Z,34.51
2022-09-06T11:13:40.239Z,33.59
2022-09-06T11:16:11.366Z,33.75
2022-09-06T11:18:47.276Z,32.85
2022-09-06T11:21:43.773Z,34.14
2022-09-06T11:24:17.004Z,34.46
2022-09-06T11:26:47.024Z,34.75
2022-09-06T11:29:26.661Z,34.14
2022-09-06T11:34:54.900Z,33.88
2022-09-06T11:37:28.349Z,33.71
2022-09-06T11:40:29.402Z,33.50
2022-09-06T11:43:16.694Z,33.88
2022-09-06T11:45:47.797Z,33.65
2022-09-06T11:48:50.772Z,33.73
2022-09-06T11:51:36.258Z,33.40
2022-09-06T11:54:21.987Z,33.38
2022-09-06T11:56:58.927Z,33.83
2022-09-06T11:59:35.536Z,33.82
2022-09-06T12:02:05.621Z,33.75
2022-09-06T12:05:16.069Z,32.45
2022-09-06T12:08:24.577Z,33.80
2022-09-06T12:10:59.892Z,33.63
2022-09-06T12:13:48.496Z,34.27
2022-09-06T12:16:18.457Z,34.49
2022-09-06T12:19:10.512Z,34.10
2022-09-06T12:21:52.115Z,33.61
2022-09-06T12:24:56.748Z,33.45
2022-09-06T12:27:27.031Z,34.42
2022-09-06T12:29:59.466Z,33.70
2022-09-06T12:32:36.593Z,33.30
2022-09-06T12:37:57.013Z,33.97
2022-09-06T12:40:28.453Z,34.12
2022-09-06T12:42:56.793Z,33.43
2022-09-06T12:45:27.565Z,33.65
2022-09-06T12:48:06.388Z,33.76
2022-09-06T12:50:34.276Z,33.72
2022-09-06T12:53:04.200Z,34.00
2022-09-06T12:55:36.549Z,34.27
2022-09-06T12:58:06.531Z,34.26
2022-09-06T13:00:37.914Z,34.22
2022-09-06T13:03:25.018Z,33.70
2022-09-06T13:05:55.713Z,33.96
2022-09-06T13:08:30.542Z,33.34
2022-09-06T13:11:00.537Z,34.19
2022-09-06T13:13:28.770Z,33.77
2022-09-06T13:15:57.327Z,34.19
2022-09-06T13:18:33.054Z,34.06
2022-09-06T13:21:03.144Z,33.32
2022-09-06T13:23:32.730Z,32.45
2022-09-06T13:26:02.233Z,33.24
2022-09-06T13:28:32.076Z,33.12
2022-09-06T13:31:05.277Z,33.36
2022-09-06T13:33:34.049Z,32.91
2022-09-06T13:36:17.596Z,31.42
2022-09-06T13:38:47.049Z,32.33
2022-09-06T13:41:37.465Z,32.15
2022-09-06T13:44:07.970Z,31.88
2022-09-06T13:46:37.267Z,31.59
2022-09-06T13:49:06.137Z,30.83
2022-09-06T13:51:35.431Z,30.67
2022-09-06T13:54:07.876Z,30.63
2022-09-06T13:56:37.691Z,30.33
2022-09-06T13:59:05.699Z,30.63
2022-09-06T14:01:34.453Z,30.22
2022-09-06T14:04:03.534Z,30.04
2022-09-06T14:06:36.083Z,29.84
2022-09-06T14:09:07.731Z,29.33
2022-09-06T14:11:37.939Z,29.19
2022-09-06T14:14:06.077Z,28.45
2022-09-06T14:16:34.997Z,29.19
2022-09-06T14:19:03.137Z,29.00
2022-09-06T14:21:31.080Z,28.32
2022-09-06T14:24:03.885Z,28.31
2022-09-06T14:26:33.308Z,28.44
2022-09-06T14:29:02.828Z,27.97
2022-09-06T14:31:32.505Z,27.36
2022-09-06T14:34:02.072Z,27.63
2022-09-06T14:36:32.385Z,27.60
2022-09-06T14:39:01.490Z,27.71
2022-09-06T14:41:29.599Z,27.07
2022-09-06T14:43:58.829Z,26.89
2022-09-06T14:46:29.895Z,26.77
2022-09-06T14:48:59.551Z,26.86
2022-09-06T14:51:27.635Z,27.15
2022-09-06T14:53:57.310Z,26.93
2022-09-06T14:56:27.135Z,26.17
2022-09-06T14:58:57.971Z,26.42
2022-09-06T15:01:30.402Z,26.12
2022-09-06T15:04:03.280Z,26.69
2022-09-06T15:06:34.715Z,26.19
2022-09-06T15:09:02.753Z,25.97
2022-09-06T15:11:34.754Z,25.67
2022-09-06T15:14:04.016Z,26.46
2022-09-06T15:16:34.332Z,25.78
2022-09-06T15:19:02.942Z,25.59
2022-09-06T15:21:32.053Z,25.94
2022-09-06T15:24:00.197Z,26.31
2022-09-06T15:26:28.150Z,26.39
2022-09-06T15:28:56.283Z,26.06
2022-09-06T15:31:24.337Z,25.31
2022-09-06T15:33:53.946Z,25.28
2022-09-06T15:36:22.023Z,25.62
2022-09-06T15:38:50.912Z,26.23
2022-09-06T15:41:21.062Z,26.14
2022-09-06T15:43:51.087Z,26.11
2022-09-06T15:46:22.204Z,25.86
2022-09-06T15:48:53.614Z,26.74
2022-09-06T15:51:22.913Z,26.56
2022-09-06T15:53:50.829Z,26.86
2022-09-06T15:56:19.785Z,26.69
2022-09-06T15:58:48.010Z,27.06
2022-09-06T16:01:17.735Z,27.51
2022-09-06T16:03:47.494Z,27.41
2022-09-06T16:06:26.726Z,28.07
2022-09-06T16:08:59.743Z,27.44
2022-09-06T16:11:29.136Z,26.94
2022-09-06T16:13:57.637Z,27.26
2022-09-06T16:16:25.803Z,26.47
2022-09-06T16:18:53.901Z,27.13
2022-09-06T16:21:24.285Z,26.79
2022-09-06T16:23:54.597Z,27.08
2022-09-06T16:26:25.738Z,27.33
2022-09-06T16:28:54.381Z,27.53
2022-09-06T16:31:23.093Z,27.20
2022-09-06T16:33:53.871Z,27.26
2022-09-06T16:36:22.775Z,27.15
2022-09-06T16:38:51.077Z,27.53
2022-09-06T16:41:21.964Z,26.95
2022-09-06T16:43:52.363Z,27.02
2022-09-06T16:46:21.106Z,27.40
2022-09-06T16:48:52.404Z,27.45
2022-09-06T16:51:22.193Z,27.87
2022-09-06T16:53:50.954Z,28.16
2022-09-06T16:56:21.586Z,28.42
2022-09-06T16:58:53.228Z,28.43
2022-09-06T17:01:21.953Z,28.83
2022-09-06T17:03:50.280Z,28.88
2022-09-06T17:06:19.182Z,29.36
2022-09-06T17:08:47.584Z,29.75
2022-09-06T17:11:17.917Z,29.70
2022-09-06T17:13:49.895Z,30.53
2022-09-06T17:16:37.465Z,29.99
2022-09-06T17:19:07.011Z,30.98
2022-09-06T17:21:35.566Z,31.22
2022-09-06T17:24:05.630Z,31.54
2022-09-06T17:26:35.021Z,32.20
2022-09-06T17:29:03.273Z,32.62
2022-09-06T17:31:33.357Z,32.90
2022-09-06T17:34:01.818Z,32.89
2022-09-06T17:36:32.270Z,33.18
2022-09-06T17:39:04.967Z,33.57
2022-09-06T17:41:38.885Z,33.73
2022-09-06T17:44:09.811Z,33.93
2022-09-06T17:46:51.891Z,33.92
2022-09-06T17:49:26.149Z,34.09
2022-09-06T17:51:54.354Z,34.41
2022-09-06T17:54:22.263Z,34.50
2022-09-06T17:56:50.120Z,34.51
2022-09-06T17:59:18.019Z,34.79
2022-09-06T18:01:47.374Z,35.47
2022-09-06T18:04:16.176Z,35.88
2022-09-06T18:06:46.739Z,35.59
2022-09-06T18:09:17.855Z,35.57
2022-09-06T18:11:47.082Z,36.15
2022-09-06T18:14:17.847Z,36.24
2022-09-06T18:16:49.465Z,36.55
2022-09-06T18:19:18.799Z,37.28
2022-09-06T18:21:49.004Z,37.55
2022-09-06T18:24:17.052Z,37.61
2022-09-06T18:26:45.116Z,37.28
2022-09-06T18:29:14.963Z,37.58
2022-09-06T18:31:44.418Z,37.58
2022-09-06T18:34:13.782Z,38.00
2022-09-06T18:36:42.311Z,37.83
2022-09-06T18:39:11.301Z,37.64
2022-09-06T18:41:56.668Z,38.27
2022-09-06T18:44:24.703Z,37.91
2022-09-06T18:46:55.780Z,38.82
2022-09-06T18:49:26.117Z,38.79
2022-09-06T18:51:54.550Z,38.68
2022-09-06T18:54:23.098Z,39.21
2022-09-06T18:56:51.100Z,39.36
2022-09-06T18:59:19.356Z,39.95
2022-09-06T19:01:47.270Z,39.57
2022-09-06T19:04:15.435Z,39.96
2022-09-06T19:06:45.823Z,40.30
2022-09-06T19:09:15.733Z,40.41
2022-09-06T19:11:45.596Z,40.39
2022-09-06T19:14:14.397Z,40.53
2022-09-06T19:16:43.931Z,41.04
2022-09-06T19:19:13.437Z,40.94
2022-09-06T19:21:42.524Z,41.48
2022-09-06T19:24:14.608Z,41.52
2022-09-06T19:26:44.630Z,41.96
2022-09-06T19:29:15.888Z,42.00
2022-09-06T19:31:44.351Z,41.95
2022-09-06T19:34:15.331Z,41.43
2022-09-06T19:36:44.388Z,41.78
2022-09-06T19:39:15.396Z,42.15
2022-09-06T19:41:45.152Z,42.47
2022-09-06T19:44:13.825Z,42.48
2022-09-06T19:46:45.651Z,42.79
2022-09-06T19:49:14.567Z,42.29
2022-09-06T19:51:43.912Z,42.46
2022-09-06T19:54:15.553Z,42.59
2022-09-06T19:56:44.254Z,42.90
2022-09-06T19:59:13.410Z,43.02
2022-09-06T20:01:43.198Z,43.54
2022-09-06T20:04:12.859Z,43.65
2022-09-06T20:06:41.511Z,43.73
2022-09-06T20:09:10.762Z,43.50
2022-09-06T20:11:41.690Z,43.84
2022-09-06T20:14:09.986Z,43.97
2022-09-06T20:16:41.413Z,43.93
2022-09-06T20:19:14.492Z,43.92
2022-09-06T20:21:42.957Z,43.87
2022-09-06T20:24:11.085Z,43.93
2022-09-06T20:26:40.437Z,43.91
2022-09-06T20:29:08.593Z,44.16
2022-09-06T20:31:38.184Z,44.11
2022-09-06T20:34:07.412Z,44.34
2022-09-06T20:36:35.291Z,44.32
2022-09-06T20:39:03.305Z,44.25
2022-09-06T20:41:31.307Z,44.54
2022-09-06T20:44:01.234Z,44.92
2022-09-06T20:46:31.059Z,44.43
2022-09-06T20:49:03.644Z,44.74
2022-09-06T20:51:32.327Z,45.19
2022-09-06T20:54:01.533Z,45.29
2022-09-06T20:56:31.963Z,45.59
2022-09-06T20:59:02.603Z,45.52
2022-09-06T21:01:33.455Z,45.30
2022-09-06T21:04:03.305Z,45.69
2022-09-06T21:06:33.769Z,45.78
2022-09-06T21:09:02.132Z,45.83
2022-09-06T21:11:30.065Z,46.02
2022-09-06T21:13:59.099Z,46.15
2022-09-06T21:16:30.359Z,46.23
2022-09-06T21:19:00.563Z,46.33
2022-09-06T21:21:30.150Z,46.35
2022-09-06T21:23:58.033Z,46.79
2022-09-06T21:26:26.509Z,47.05
2022-09-06T21:28:54.394Z,46.67
2022-09-06T21:31:24.324Z,46.48
2022-09-06T21:33:55.257Z,46.33
2022-09-06T21:36:24.770Z,46.14
2022-09-06T21:38:55.421Z,46.15
2022-09-06T21:41:24.483Z,45.94
2022-09-06T21:43:53.768Z,46.11
2022-09-06T21:46:23.140Z,46.02
2022-09-06T21:48:54.011Z,46.17
2022-09-06T21:51:23.980Z,45.78
2022-09-06T21:53:52.977Z,45.91
2022-09-06T21:56:23.823Z,46.01
2022-09-06T21:58:52.703Z,45.81
2022-09-06T22:01:20.806Z,45.77
2022-09-06T22:03:48.893Z,45.56
2022-09-06T22:06:20.053Z,45.89
2022-09-06T22:08:48.661Z,45.86
2022-09-06T22:11:18.726Z,45.73
2022-09-06T22:13:47.926Z,46.18
2022-09-06T22:16:18.486Z,46.18
2022-09-06T22:18:47.740Z,46.01
2022-09-06T22:21:20.319Z,46.21
2022-09-06T22:23:52.194Z,46.36
2022-09-06T22:26:21.043Z,46.25
2022-09-06T22:28:49.400Z,46.42
2022-09-06T22:31:17.356Z,46.78
2022-09-06T22:33:45.326Z,46.67
2022-09-06T22:36:13.213Z,46.64
2022-09-06T22:38:42.477Z,47.03
2022-09-06T22:41:10.573Z,46.64
2022-09-06T22:43:38.421Z,46.93
2022-09-06T22:46:08.445Z,47.09
2022-09-06T22:48:37.102Z,46.58
2022-09-06T22:51:07.179Z,46.74
2022-09-06T22:53:35.484Z,47.10
2022-09-06T22:56:05.434Z,47.14
2022-09-06T22:58:34.588Z,47.19
2022-09-06T23:01:08.079Z,47.36
2022-09-06T23:03:36.851Z,47.19
2022-09-06T23:06:05.296Z,46.87
2022-09-06T23:08:34.625Z,47.25
2022-09-06T23:11:07.909Z,47.33
2022-09-06T23:13:36.144Z,47.27
2022-09-06T23:16:05.826Z,47.28
2022-09-06T23:18:33.931Z,47.71
2022-09-06T23:21:06.472Z,47.95
2022-09-06T23:23:34.854Z,47.83
2022-09-06T23:26:09.587Z,48.34
2022-09-06T23:28:38.154Z,48.69
2022-09-06T23:31:07.265Z,49.44
2022-09-06T23:33:37.387Z,49.93
2022-09-06T23:36:06.187Z,51.45
2022-09-06T23:38:34.716Z,55.46
2022-09-06T23:41:02.876Z,59.05
2022-09-06T23:43:32.191Z,61.24
2022-09-06T23:46:00.249Z,62.36
2022-09-06T23:48:28.296Z,63.78
2022-09-06T23:50:56.169Z,65.06
2022-09-06T23:53:24.255Z,64.63
2022-09-06T23:55:52.189Z,65.27
2022-09-06T23:58:20.450Z,66.07
